createdAt,value
2022-10-28T00:00:24.349Z,8.22
2022-10-28T00:03:45.031Z,8.21
2022-10-28T00:07:01.247Z,8.19
2022-10-28T00:10:18.644Z,8.16
2022-10-28T00:13:34.722Z,8.10
2022-10-28T00:16:52.807Z,8.10
2022-10-28T00:20:09.260Z,8.10
2022-10-28T00:23:25.297Z,8.05
2022-10-28T00:26:44.319Z,8.04
2022-10-28T00:30:00.843Z,8.02
2022-10-28T00:33:17.669Z,8.01
2022-10-28T00:36:39.687Z,7.98
2022-10-28T00:39:55.784Z,8.00
2022-10-28T00:43:12.213Z,7.99
2022-10-28T00:46:36.215Z,7.93
2022-10-28T00:49:54.206Z,7.92
2022-10-28T00:53:15.140Z,7.93
2022-10-28T00:56:37.551Z,7.89
2022-10-28T00:59:57.657Z,7.87
2022-10-28T01:03:14.772Z,7.85
2022-10-28T01:06:37.669Z,7.86
2022-10-28T01:09:57.738Z,7.82
2022-10-28T01:13:19.782Z,7.78
2022-10-28T01:16:41.807Z,7.73
2022-10-28T01:20:31.734Z,7.68
2022-10-28T01:23:57.365Z,7.64
2022-10-28T01:28:07.130Z,7.61
2022-10-28T01:31:35.076Z,7.53
2022-10-28T01:34:57.130Z,7.51
2022-10-28T01:38:29.506Z,7.52
2022-10-28T01:41:52.134Z,7.44
2022-10-28T01:45:15.969Z,7.44
2022-10-28T01:51:58.942Z,7.33
2022-10-28T01:55:20.908Z,7.30
2022-10-28T01:58:40.269Z,7.31
2022-10-28T02:01:57.844Z,7.24
2022-10-28T02:05:46.489Z,7.21
2022-10-28T02:09:25.816Z,7.21
2022-10-28T02:12:45.100Z,7.26
2022-10-28T02:16:05.928Z,7.25
2022-10-28T02:19:30.396Z,7.18
2022-10-28T02:22:53.471Z,7.12
2022-10-28T02:26:14.684Z,7.14
2022-10-28T02:29:37.088Z,7.09
2022-10-28T02:32:57.663Z,7.08
2022-10-28T02:36:18.763Z,7.05
2022-10-28T02:39:39.437Z,7.01
2022-10-28T02:42:59.884Z,7.03
2022-10-28T02:46:17.915Z,7.03
2022-10-28T02:49:36.890Z,6.96
2022-10-28T02:52:57.412Z,6.97
2022-10-28T02:56:16.232Z,6.92
2022-10-28T02:59:34.531Z,6.91
2022-10-28T03:02:52.213Z,6.82
2022-10-28T03:06:11.039Z,6.76
2022-10-28T03:09:27.116Z,6.72
2022-10-28T03:12:43.209Z,6.62
2022-10-28T03:16:04.439Z,6.60
2022-10-28T03:19:20.787Z,6.60
2022-10-28T03:22:39.636Z,6.57
2022-10-28T03:25:55.905Z,6.62
2022-10-28T03:29:11.999Z,6.62
2022-10-28T03:32:28.363Z,6.62
2022-10-28T03:35:45.822Z,6.59
2022-10-28T03:39:01.920Z,6.57
2022-10-28T03:42:18.072Z,6.61
2022-10-28T03:45:34.208Z,6.66
2022-10-28T03:48:50.701Z,6.63
2022-10-28T03:52:07.063Z,6.66
2022-10-28T03:55:24.545Z,6.62
2022-10-28T03:58:41.424Z,6.64
2022-10-28T04:01:57.702Z,6.67
2022-10-28T04:05:15.289Z,6.69
2022-10-28T04:08:31.591Z,6.65
2022-10-28T04:11:47.721Z,6.62
2022-10-28T04:15:03.913Z,6.60
2022-10-28T04:18:20.540Z,6.64
2022-10-28T04:21:37.829Z,6.62
2022-10-28T04:24:58.091Z,6.64
2022-10-28T04:28:14.848Z,6.64
2022-10-28T04:31:31.050Z,6.57
2022-10-28T04:35:00.022Z,6.55
2022-10-28T04:38:18.251Z,6.49
2022-10-28T04:41:34.727Z,6.52
2022-10-28T04:44:50.706Z,6.51
2022-10-28T04:48:08.725Z,6.47
2022-10-28T04:51:25.013Z,6.43
2022-10-28T04:54:42.227Z,6.46
2022-10-28T04:58:12.372Z,6.42
2022-10-28T05:01:30.452Z,6.42
2022-10-28T05:04:47.169Z,6.40
2022-10-28T05:08:03.252Z,6.36
2022-10-28T05:11:19.860Z,6.33
2022-10-28T05:14:38.601Z,6.29
2022-10-28T05:17:55.763Z,6.26
2022-10-28T05:21:13.132Z,6.26
2022-10-28T05:24:32.858Z,6.34
2022-10-28T05:27:51.835Z,6.41
2022-10-28T05:31:10.176Z,6.40
2022-10-28T05:34:27.018Z,6.41
2022-10-28T05:37:48.545Z,6.32
2022-10-28T05:41:11.219Z,6.28
2022-10-28T05:44:33.981Z,6.39
2022-10-28T05:47:56.043Z,6.37
2022-10-28T05:51:16.675Z,6.35
2022-10-28T05:54:34.409Z,6.34
2022-10-28T05:57:52.050Z,6.39
2022-10-28T06:01:42.636Z,6.50
2022-10-28T06:05:08.399Z,6.58
2022-10-28T06:09:04.019Z,6.66
2022-10-28T06:12:19.276Z,6.85
2022-10-28T06:15:43.135Z,6.95
2022-10-28T06:18:59.716Z,7.04
2022-10-28T06:22:22.530Z,7.24
2022-10-28T06:25:40.021Z,7.61
2022-10-28T06:28:57.335Z,8.04
2022-10-28T06:32:16.915Z,8.46
2022-10-28T06:35:37.021Z,9.02
2022-10-28T06:38:53.821Z,9.69
2022-10-28T06:42:11.132Z,10.19
2022-10-28T06:45:29.579Z,10.85
2022-10-28T06:48:47.989Z,10.76
2022-10-28T06:52:04.301Z,10.75
2022-10-28T06:55:21.512Z,11.02
2022-10-28T06:58:46.964Z,10.91
2022-10-28T07:02:06.242Z,10.93
2022-10-28T07:05:27.356Z,10.89
2022-10-28T07:08:48.154Z,11.13
2022-10-28T07:12:07.120Z,11.47
2022-10-28T07:58:12.446Z,11.12
2022-10-28T08:01:46.608Z,11.28
2022-10-28T08:05:25.389Z,11.38
2022-10-28T08:14:25.598Z,12.07
2022-10-28T08:18:04.145Z,12.68
2022-10-28T08:21:40.300Z,12.91
2022-10-28T08:25:14.574Z,12.97
2022-10-28T08:28:58.531Z,13.10
2022-10-28T08:32:24.625Z,13.26
2022-10-28T08:35:53.799Z,13.31
2022-10-28T08:39:11.862Z,13.45
2022-10-28T08:42:47.872Z,13.58
2022-10-28T08:46:09.620Z,13.88
2022-10-28T08:49:30.767Z,14.11
2022-10-28T08:52:52.264Z,14.26
2022-10-28T08:56:16.439Z,14.57
2022-10-28T08:59:37.387Z,14.83
2022-10-28T09:09:26.926Z,15.46
2022-10-28T09:12:49.615Z,15.60
2022-10-28T09:16:13.724Z,15.74
2022-10-28T09:19:44.832Z,15.87
2022-10-28T09:23:08.130Z,16.04
2022-10-28T09:26:52.382Z,16.24
2022-10-28T09:30:20.454Z,16.47
2022-10-28T09:33:53.940Z,16.78
2022-10-28T09:37:16.873Z,17.05
2022-10-28T09:40:36.522Z,17.24
2022-10-28T09:43:56.693Z,17.32
2022-10-28T09:47:21.227Z,17.44
2022-10-28T09:50:40.204Z,17.62
2022-10-28T09:54:01.392Z,17.80
2022-10-28T09:57:17.692Z,17.99
2022-10-28T10:00:33.990Z,18.18
2022-10-28T10:03:50.724Z,18.37
2022-10-28T10:07:11.504Z,18.49
2022-10-28T10:10:32.358Z,18.58
2022-10-28T10:13:51.174Z,18.69
2022-10-28T10:17:11.430Z,18.69
2022-10-28T10:20:28.921Z,18.80
2022-10-28T10:23:46.231Z,18.91
2022-10-28T10:27:03.654Z,19.05
2022-10-28T10:30:43.629Z,19.18
2022-10-28T10:34:05.471Z,19.32
2022-10-28T10:37:28.169Z,19.35
2022-10-28T10:40:49.350Z,19.42
2022-10-28T10:47:31.088Z,19.55
2022-10-28T10:50:48.348Z,19.56
2022-10-28T10:54:06.828Z,19.59
2022-10-28T10:57:28.431Z,19.63
2022-10-28T11:00:50.149Z,19.63
2022-10-28T11:04:10.266Z,19.66
2022-10-28T11:07:26.428Z,19.69
2022-10-28T11:10:43.100Z,19.67
2022-10-28T11:14:09.980Z,19.69
2022-10-28T11:17:42.999Z,19.71
2022-10-28T11:21:04.422Z,19.74
2022-10-28T11:24:37.507Z,19.79
2022-10-28T11:28:04.599Z,19.80
2022-10-28T11:31:38.280Z,19.83
2022-10-28T11:35:26.327Z,19.82
2022-10-28T11:38:56.564Z,19.83
2022-10-28T11:42:24.704Z,19.86
2022-10-28T11:45:48.697Z,19.88
2022-10-28T11:49:48.619Z,19.87
2022-10-28T11:53:36.570Z,19.83
2022-10-28T11:56:58.298Z,19.78
2022-10-28T12:00:36.294Z,19.71
2022-10-28T12:04:10.694Z,19.69
2022-10-28T12:07:44.370Z,19.70
2022-10-28T12:11:21.981Z,19.70
2022-10-28T12:14:46.002Z,19.69
2022-10-28T12:18:07.726Z,19.67
2022-10-28T12:21:31.173Z,19.66
2022-10-28T12:24:51.334Z,19.65
2022-10-28T12:28:12.065Z,19.64
2022-10-28T12:31:35.885Z,19.63
2022-10-28T12:34:56.717Z,19.64
2022-10-28T12:38:18.662Z,19.65
2022-10-28T12:44:59.779Z,19.67
2022-10-28T12:48:22.024Z,19.65
2022-10-28T12:51:42.732Z,19.62
2022-10-28T12:55:16.915Z,19.63
2022-10-28T12:58:41.777Z,19.60
2022-10-28T13:02:01.975Z,19.59
2022-10-28T13:05:37.084Z,19.58
2022-10-28T13:09:39.361Z,19.57
2022-10-28T13:13:53.172Z,19.62
2022-10-28T13:17:33.180Z,19.62
2022-10-28T13:20:57.099Z,19.59
2022-10-28T13:24:25.988Z,19.59
2022-10-28T13:27:47.190Z,19.60
2022-10-28T13:31:17.258Z,19.62
2022-10-28T13:34:42.010Z,19.65
2022-10-28T13:38:02.951Z,19.71
2022-10-28T13:41:44.906Z,19.76
2022-10-28T13:45:01.789Z,19.76
2022-10-28T13:49:01.399Z,19.79
2022-10-28T13:52:28.876Z,19.79
2022-10-28T13:55:54.368Z,19.80
2022-10-28T13:59:20.572Z,19.81
2022-10-28T14:02:45.577Z,19.80
2022-10-28T14:06:05.201Z,19.77
2022-10-28T14:09:34.588Z,19.73
2022-10-28T14:13:03.760Z,19.67
2022-10-28T14:16:34.693Z,19.61
2022-10-28T14:19:55.696Z,19.58
2022-10-28T14:23:47.027Z,19.50
2022-10-28T14:27:49.945Z,19.45
2022-10-28T14:36:34.231Z,19.24
2022-10-28T14:39:58.715Z,19.17
2022-10-28T14:43:58.939Z,19.08
2022-10-28T14:47:58.760Z,19.00
2022-10-28T14:51:20.589Z,18.94
2022-10-28T14:54:44.174Z,18.84
2022-10-28T14:58:03.543Z,18.77
2022-10-28T15:01:43.311Z,18.69
2022-10-28T15:05:14.794Z,18.58
2022-10-28T15:09:13.074Z,18.48
2022-10-28T15:12:35.850Z,18.37
2022-10-28T15:16:03.820Z,18.28
2022-10-28T15:19:27.614Z,18.21
2022-10-28T15:22:46.654Z,18.11
2022-10-28T15:26:15.268Z,17.97
2022-10-28T15:29:31.959Z,17.83
2022-10-28T15:32:47.988Z,17.69
2022-10-28T15:36:18.492Z,17.59
2022-10-28T15:39:46.607Z,17.48
2022-10-28T15:43:09.609Z,17.39
2022-10-28T15:46:26.620Z,17.26
2022-10-28T15:49:47.212Z,17.11
2022-10-28T15:53:21.790Z,16.95
2022-10-28T16:32:42.573Z,15.82
2022-10-28T16:35:58.720Z,15.78
2022-10-28T16:39:19.611Z,15.73
2022-10-28T16:42:36.010Z,15.64
2022-10-28T16:45:52.364Z,15.57
2022-10-28T16:49:08.830Z,15.48
2022-10-28T16:52:28.333Z,15.39
2022-10-28T16:55:47.498Z,15.30
2022-10-28T16:59:04.153Z,15.27
2022-10-28T17:02:26.379Z,15.33
2022-10-28T17:05:43.558Z,15.47
2022-10-28T17:09:03.246Z,15.44
2022-10-28T17:12:23.378Z,15.35
2022-10-28T17:18:39.819Z,15.16
2022-10-28T17:21:58.413Z,15.08
2022-10-28T17:42:29.181Z,14.49
2022-10-28T17:45:45.540Z,14.44
2022-10-28T17:49:06.541Z,14.39
2022-10-28T17:52:27.568Z,14.37
2022-10-28T17:55:49.585Z,14.26
2022-10-28T17:59:07.002Z,14.18
2022-10-28T18:02:28.894Z,14.15
2022-10-28T18:05:47.291Z,14.19
2022-10-28T18:09:04.689Z,14.21
2022-10-28T18:12:21.150Z,14.25
2022-10-28T18:15:46.705Z,14.30
2022-10-28T18:19:05.590Z,14.30
2022-10-28T18:25:42.726Z,14.28
2022-10-28T18:28:59.400Z,14.24
2022-10-28T18:32:52.184Z,14.24
2022-10-28T18:36:14.764Z,14.24
2022-10-28T18:39:31.905Z,14.19
2022-10-28T18:42:50.558Z,14.17
2022-10-28T18:46:16.933Z,14.12
2022-10-28T18:49:38.404Z,14.13
2022-10-28T18:52:58.678Z,14.05
2022-10-28T18:56:18.746Z,14.04
2022-10-28T18:59:39.915Z,14.04
2022-10-28T19:02:56.937Z,14.05
2022-10-28T19:06:16.685Z,14.03
2022-10-28T19:09:33.048Z,14.06
2022-10-28T19:12:53.006Z,14.08
2022-10-28T19:16:09.294Z,14.10
2022-10-28T20:19:21.691Z,13.41
2022-10-28T20:22:42.193Z,13.39
2022-10-28T20:26:04.745Z,13.37
2022-10-28T20:29:21.029Z,13.38
2022-10-28T20:32:37.299Z,13.31
2022-10-28T20:35:53.583Z,13.25
2022-10-28T20:39:12.644Z,13.19
2022-10-28T20:42:31.316Z,13.14
2022-10-28T20:45:48.265Z,13.10
2022-10-28T20:49:05.026Z,13.02
2022-10-28T20:52:22.647Z,13.01
2022-10-28T20:55:39.130Z,12.92
2022-10-28T20:58:55.726Z,12.83
2022-10-28T21:02:12.144Z,12.81
2022-10-28T21:05:30.887Z,12.79
2022-10-28T21:08:47.607Z,12.81
2022-10-28T21:12:04.097Z,12.80
2022-10-28T21:15:22.459Z,12.79
2022-10-28T21:18:38.861Z,12.79
2022-10-28T21:21:55.194Z,12.69
2022-10-28T21:25:12.955Z,12.68
2022-10-28T21:28:29.498Z,12.64
2022-10-28T21:31:45.791Z,12.53
2022-10-28T21:35:02.250Z,12.48
2022-10-28T21:38:18.935Z,12.46
2022-10-28T21:41:35.067Z,12.42
2022-10-28T21:44:51.297Z,12.37
2022-10-28T21:48:07.403Z,12.38
2022-10-28T21:51:25.138Z,12.34
2022-10-28T21:54:43.153Z,12.33
2022-10-28T21:57:59.395Z,12.35
2022-10-28T22:01:18.420Z,12.36
2022-10-28T22:04:37.613Z,12.36
2022-10-28T22:07:54.376Z,12.38
2022-10-28T22:11:15.893Z,12.39
2022-10-28T22:14:32.956Z,12.39
2022-10-28T22:17:49.164Z,12.38
2022-10-28T22:21:11.937Z,12.34
2022-10-28T22:24:28.008Z,12.33
2022-10-28T22:27:45.793Z,12.28
2022-10-28T22:31:07.285Z,12.27
2022-10-28T22:34:23.393Z,12.23
2022-10-28T22:37:39.435Z,12.22
2022-10-28T22:40:55.800Z,12.13
2022-10-28T22:44:12.418Z,12.16
2022-10-28T22:47:28.432Z,12.11
2022-10-28T22:50:44.576Z,12.06
2022-10-28T22:54:00.745Z,12.06
2022-10-28T22:57:16.680Z,12.04
2022-10-28T23:00:32.881Z,12.02
2022-10-28T23:03:51.223Z,11.96
2022-10-28T23:07:07.433Z,11.94
2022-10-28T23:10:24.059Z,11.89
2022-10-28T23:13:40.418Z,11.86
2022-10-28T23:16:57.715Z,11.78
2022-10-28T23:20:16.257Z,11.78
2022-10-28T23:23:32.385Z,11.74
2022-10-28T23:26:50.170Z,11.77
2022-10-28T23:30:06.714Z,11.76
2022-10-28T23:33:25.389Z,11.72
2022-10-28T23:36:41.556Z,11.73
2022-10-28T23:39:57.607Z,11.66
2022-10-28T23:43:13.745Z,11.63
2022-10-28T23:46:33.635Z,11.64
2022-10-28T23:49:47.781Z,11.61
2022-10-28T23:53:06.790Z,11.59
2022-10-28T23:56:22.826Z,11.49
2022-10-28T23:59:38.884Z,11.35
